Time;durP1;ratioP1;P1;durP2;ratioP2;P2;SDS_P1;SDS_P2;PMS_P1;PMS_P2;Temp;Humidity;BMP_temperature;BMP_pressure;BME280_temperature;BME280_humidity;BME280_pressure;Samples;Min_cycle;Max_cycle;Signal;HPM_P1;HPM_P2
2021/05/05 00:00:25;;;;;;;4.37;2.17;;;;;;;18.62;51.88;99525.78;2065774;28;20040;-66
2021/05/05 00:01:25;;;;;;;2.47;1.92;;;;;;;18.62;52.09;99514.88;2068652;28;20574;-67
2021/05/05 00:02:25;;;;;;;3.37;2.20;;;;;;;18.63;52.05;99514.69;2059960;28;20136;-67
2021/05/05 00:03:26;;;;;;;2.40;1.97;;;;;;;18.63;51.97;99513.81;2060320;28;20056;-66
2021/05/05 00:04:27;;;;;;;5.00;2.40;;;;;;;18.63;51.85;99516.56;2061710;28;20026;-66
2021/05/05 00:05:27;;;;;;;3.43;2.40;;;;;;;18.65;51.80;99520.00;2061503;28;20142;-67
2021/05/05 00:06:28;;;;;;;3.73;2.40;;;;;;;18.64;51.77;99512.81;2062386;28;20032;-67
2021/05/05 00:07:28;;;;;;;4.90;2.63;;;;;;;18.64;51.84;99521.00;2061548;28;20033;-67
2021/05/05 00:08:29;;;;;;;3.30;1.83;;;;;;;18.64;51.80;99518.25;2060090;28;20034;-67
2021/05/05 00:09:29;;;;;;;4.27;2.10;;;;;;;18.64;51.79;99524.59;2057256;28;20030;-67
2021/05/05 00:10:30;;;;;;;3.23;2.23;;;;;;;18.64;51.92;99521.88;2062013;28;20749;-67
2021/05/05 00:11:30;;;;;;;4.77;2.70;;;;;;;18.65;51.76;99525.44;2062529;28;20038;-67
2021/05/05 00:12:31;;;;;;;3.33;2.20;;;;;;;18.64;51.90;99523.72;2061778;28;20033;-67
2021/05/05 00:13:31;;;;;;;3.93;2.73;;;;;;;18.65;51.84;99517.25;2061496;28;20061;-67
2021/05/05 00:14:32;;;;;;;3.60;2.20;;;;;;;18.64;51.86;99515.53;2062007;28;20117;-67
2021/05/05 00:15:32;;;;;;;3.67;2.53;;;;;;;18.62;51.64;99521.16;2060121;28;20406;-67
2021/05/05 00:16:33;;;;;;;3.90;1.90;;;;;;;18.64;51.68;99512.81;2061758;28;20045;-67
2021/05/05 00:17:33;;;;;;;4.03;2.37;;;;;;;18.63;51.66;99511.09;2055689;28;20030;-67
2021/05/05 00:18:35;;;;;;;3.37;2.03;;;;;;;18.65;51.92;99520.00;2062366;28;20756;-67
2021/05/05 00:19:36;;;;;;;3.03;2.22;;;;;;;18.64;51.89;99516.41;2060687;28;20062;-67
2021/05/05 00:20:36;;;;;;;2.57;2.17;;;;;;;18.63;51.81;99505.63;2061278;28;20042;-67
2021/05/05 00:21:37;;;;;;;4.60;2.50;;;;;;;18.65;51.77;99511.81;2059426;28;20034;-67
2021/05/05 00:22:38;;;;;;;2.80;2.23;;;;;;;18.65;51.69;99514.53;2061816;28;20026;-67
2021/05/05 00:23:38;;;;;;;2.93;2.27;;;;;;;18.64;51.63;99512.81;2062357;28;20029;-66
2021/05/05 00:24:39;;;;;;;4.03;2.53;;;;;;;18.65;51.70;99514.53;2059713;28;20293;-67
2021/05/05 00:25:39;;;;;;;3.07;2.50;;;;;;;18.64;51.92;99507.34;2061882;28;20031;-67
2021/05/05 00:26:40;;;;;;;3.23;2.40;;;;;;;18.64;51.78;99508.22;2062378;28;20050;-67
2021/05/05 00:27:41;;;;;;;3.30;2.47;;;;;;;18.64;51.64;99508.22;2061621;28;20477;-67
2021/05/05 00:28:41;;;;;;;3.10;2.17;;;;;;;18.64;51.73;99508.22;2062149;28;20126;-67
2021/05/05 00:29:42;;;;;;;2.67;1.93;;;;;;;18.64;51.78;99510.06;2061707;28;20019;-66
2021/05/05 00:30:42;;;;;;;3.50;2.00;;;;;;;18.64;51.68;99507.34;2061999;28;20034;-66
2021/05/05 00:31:43;;;;;;;2.77;2.17;;;;;;;18.63;51.74;99505.63;2061542;28;20034;-67
2021/05/05 00:32:43;;;;;;;3.37;2.10;;;;;;;18.63;51.77;99500.19;2060524;28;20035;-67
2021/05/05 00:33:45;;;;;;;3.47;2.17;;;;;;;18.64;51.73;99501.88;2054706;28;20038;-68
2021/05/05 00:34:45;;;;;;;3.17;2.28;;;;;;;18.64;51.73;99499.16;2059760;28;20554;-67
2021/05/05 00:35:46;;;;;;;3.17;2.00;;;;;;;18.64;51.79;99501.88;2062166;28;20782;-67
2021/05/05 00:36:46;;;;;;;2.77;2.43;;;;;;;18.65;51.64;99503.63;2062210;28;20400;-67
2021/05/05 00:37:47;;;;;;;3.00;2.40;;;;;;;18.64;51.59;99500.03;2061735;28;20062;-67
2021/05/05 00:38:48;;;;;;;3.43;2.27;;;;;;;18.64;51.73;99499.16;2062452;28;20108;-67
2021/05/05 00:39:51;;;;;;;4.77;2.20;;;;;;;18.62;51.55;99499.34;2060525;28;20426;-67
2021/05/05 00:40:51;;;;;;;3.25;2.42;;;;;;;18.64;51.80;99499.16;2061823;28;20053;-67
2021/05/05 00:41:52;;;;;;;3.33;2.37;;;;;;;18.63;51.57;99494.72;2059492;28;20117;-67
2021/05/05 00:42:53;;;;;;;2.80;2.20;;;;;;;18.63;51.63;99483.81;2060667;28;20030;-67
2021/05/05 00:43:53;;;;;;;3.40;2.43;;;;;;;18.62;51.75;99490.28;2057007;28;20049;-67
2021/05/05 00:45:01;;;;;;;3.27;2.20;;;;;;;18.61;51.86;99492.13;2060558;28;20069;-67
2021/05/05 00:46:02;;;;;;;2.85;1.85;;;;;;;18.62;51.88;99493.03;2061761;28;20026;-67
2021/05/05 00:47:03;;;;;;;4.00;2.50;;;;;;;18.61;51.83;99496.75;2054346;28;20116;-66
2021/05/05 00:48:03;;;;;;;2.70;2.10;;;;;;;18.61;51.88;99492.13;2061083;28;20057;-67
2021/05/05 00:49:04;;;;;;;4.27;2.10;;;;;;;18.61;51.86;99494.88;2062069;28;20037;-66
2021/05/05 00:50:08;;;;;;;2.90;2.20;;;;;;;18.61;51.91;99485.84;2058226;28;20035;-67
2021/05/05 00:51:08;;;;;;;3.88;2.10;;;;;;;18.62;51.74;99495.75;2059298;28;20509;-66
2021/05/05 00:52:09;;;;;;;2.83;2.10;;;;;;;18.62;51.70;99484.84;2059613;28;20451;-67
2021/05/05 00:53:09;;;;;;;2.67;2.07;;;;;;;18.62;51.88;99487.56;2057985;28;20054;-67
2021/05/05 00:54:11;;;;;;;4.00;2.07;;;;;;;18.62;51.87;99484.84;2063631;28;20836;-67
2021/05/05 00:55:13;;;;;;;3.70;2.38;;;;;;;18.62;51.92;99487.56;2063228;28;20116;-67
2021/05/05 00:56:13;;;;;;;3.00;2.15;;;;;;;18.60;51.93;99486.88;2062511;28;20030;-66
2021/05/05 00:57:14;;;;;;;2.80;1.97;;;;;;;18.61;52.08;99491.28;2063036;28;20058;-67
2021/05/05 00:58:15;;;;;;;2.70;2.10;;;;;;;18.60;51.83;99489.59;2063106;28;20038;-67
2021/05/05 00:59:15;;;;;;;3.83;2.15;;;;;;;18.60;52.06;99484.97;2063579;28;20026;-67
2021/05/05 01:00:19;;;;;;;2.50;2.20;;;;;;;18.60;51.75;99484.13;2061623;28;20109;-67
2021/05/05 01:01:19;;;;;;;5.60;2.35;;;;;;;18.60;51.92;99484.97;2063296;28;20022;-67
2021/05/05 01:02:21;;;;;;;3.73;2.90;;;;;;;18.59;52.18;99483.28;2063328;28;20134;-67
2021/05/05 01:03:22;;;;;;;3.00;2.28;;;;;;;18.59;51.91;99486.00;2061925;28;20034;-67
2021/05/05 01:04:22;;;;;;;3.88;2.38;;;;;;;18.60;51.96;99478.69;2063651;28;20480;-67
2021/05/05 01:05:23;;;;;;;2.80;2.10;;;;;;;18.60;51.95;99478.69;2063640;28;20171;-67
2021/05/05 01:06:23;;;;;;;3.80;2.40;;;;;;;18.59;51.88;99479.69;2062764;28;20161;-67
2021/05/05 01:07:24;;;;;;;3.07;2.20;;;;;;;18.61;51.78;99480.38;2062808;28;20038;-67
2021/05/05 01:08:24;;;;;;;2.83;2.13;;;;;;;18.60;51.91;99484.13;2062788;28;20088;-67
2021/05/05 01:09:26;;;;;;;3.37;1.70;;;;;;;18.60;51.90;99484.13;2062546;28;20026;-67
2021/05/05 01:10:26;;;;;;;2.83;2.00;;;;;;;18.59;51.76;99480.56;2063388;28;20034;-67
2021/05/05 01:11:28;;;;;;;5.23;2.57;;;;;;;18.60;51.92;99482.25;2063230;28;20036;-67
2021/05/05 01:12:28;;;;;;;3.10;2.45;;;;;;;18.59;51.92;99485.13;2063131;28;20022;-66
2021/05/05 01:13:29;;;;;;;2.67;2.17;;;;;;;18.61;51.91;99488.56;2063202;28;20042;-67
2021/05/05 01:14:30;;;;;;;2.85;1.90;;;;;;;18.59;51.97;99485.13;2060315;28;20050;-67
2021/05/05 01:15:30;;;;;;;3.07;2.20;;;;;;;18.59;52.02;99488.75;2057617;28;20030;-66
2021/05/05 01:16:31;;;;;;;3.03;1.90;;;;;;;18.58;51.84;99477.97;2063656;28;20495;-67
2021/05/05 01:17:33;;;;;;;5.60;2.40;;;;;;;18.58;52.03;99472.53;2063104;28;20030;-67
2021/05/05 01:18:33;;;;;;;2.90;2.10;;;;;;;18.59;51.96;99477.81;2063717;28;20469;-67
2021/05/05 01:19:34;;;;;;;4.10;2.40;;;;;;;18.59;51.81;99483.28;2063187;28;20023;-67
2021/05/05 01:20:35;;;;;;;3.15;2.25;;;;;;;18.59;51.79;99476.94;2062985;28;20057;-67
2021/05/05 01:21:36;;;;;;;2.93;1.90;;;;;;;18.59;51.88;99477.81;2063074;28;20038;-66
2021/05/05 01:22:37;;;;;;;3.37;2.23;;;;;;;18.59;51.96;99479.69;2059889;28;20026;-67
2021/05/05 01:23:37;;;;;;;5.75;2.70;;;;;;;18.58;52.06;99475.25;2063529;28;20042;-67
2021/05/05 01:24:38;;;;;;;2.83;2.17;;;;;;;18.59;51.94;99476.94;2062877;28;20032;-67
2021/05/05 01:25:39;;;;;;;2.60;2.10;;;;;;;18.59;51.94;99474.22;2063228;28;20034;-66
2021/05/05 01:26:40;;;;;;;4.40;2.57;;;;;;;18.59;51.84;99477.81;2062853;28;20117;-67
2021/05/05 01:27:41;;;;;;;3.20;2.10;;;;;;;18.59;51.97;99474.22;2060729;28;20070;-67
2021/05/05 01:28:44;;;;;;;4.00;2.00;;;;;;;18.58;51.93;99469.78;2063591;28;20045;-67
2021/05/05 01:29:47;;;;;;;4.38;2.15;;;;;;;18.59;51.82;99460.56;2060977;28;20042;-66
2021/05/05 01:30:48;;;;;;;3.63;2.17;;;;;;;18.59;51.96;99466.03;2062982;28;20042;-67
2021/05/05 01:31:49;;;;;;;3.92;2.42;;;;;;;18.58;52.02;99472.53;2063218;28;20045;-67
2021/05/05 01:32:50;;;;;;;4.37;2.13;;;;;;;18.58;52.00;99464.31;2062744;28;20135;-67
2021/05/05 01:33:51;;;;;;;3.55;2.00;;;;;;;18.58;51.78;99467.06;2062986;28;20085;-67
2021/05/05 01:34:52;;;;;;;3.43;2.30;;;;;;;18.57;51.96;99455.28;2062695;28;20038;-67
2021/05/05 01:35:53;;;;;;;4.30;2.13;;;;;;;18.58;51.97;99469.78;2062638;28;20038;-66
2021/05/05 01:36:53;;;;;;;2.03;1.70;;;;;;;18.57;51.86;99468.06;2063196;28;20030;-67
2021/05/05 01:37:54;;;;;;;3.10;2.13;;;;;;;18.56;51.94;99461.75;2062902;28;20022;-67
2021/05/05 01:38:55;;;;;;;2.50;2.13;;;;;;;18.58;51.89;99464.31;2063159;28;20026;-67
2021/05/05 01:39:55;;;;;;;3.87;1.97;;;;;;;18.57;51.86;99462.59;2058662;28;20030;-67
2021/05/05 01:40:56;;;;;;;4.20;2.50;;;;;;;18.56;51.83;99466.34;2062685;28;20034;-67
2021/05/05 01:41:57;;;;;;;3.17;2.47;;;;;;;18.57;51.89;99468.06;2060898;28;20501;-67
2021/05/05 01:42:58;;;;;;;2.83;2.28;;;;;;;18.57;51.90;99468.94;2062471;28;20050;-67
2021/05/05 01:43:59;;;;;;;2.83;2.05;;;;;;;18.56;51.96;99455.44;2060914;28;20113;-67
2021/05/05 01:45:00;;;;;;;3.77;2.50;;;;;;;18.58;52.02;99458.88;2059147;28;20026;-67
2021/05/05 01:46:02;;;;;;;3.70;1.90;;;;;;;18.57;51.82;99451.69;2058178;28;20042;-67
2021/05/05 01:47:03;;;;;;;3.22;1.75;;;;;;;18.56;51.82;99445.38;2062942;28;20156;-67
2021/05/05 01:48:07;;;;;;;2.35;2.15;;;;;;;18.56;51.83;99449.97;2059988;28;20041;-66
2021/05/05 01:49:07;;;;;;;3.30;2.30;;;;;;;18.56;51.86;99444.53;2062833;28;20566;-67
2021/05/05 01:50:08;;;;;;;2.67;2.10;;;;;;;18.57;52.00;99457.13;2062721;28;20121;-67
2021/05/05 01:51:09;;;;;;;3.42;1.98;;;;;;;18.56;51.85;99448.09;2063022;28;20102;-67
2021/05/05 01:52:09;;;;;;;2.53;2.23;;;;;;;18.56;51.77;99456.28;2062568;28;20551;-67
2021/05/05 01:53:12;;;;;;;3.03;2.00;;;;;;;18.55;51.92;99449.13;2060501;28;20413;-66
2021/05/05 01:54:12;;;;;;;4.07;2.10;;;;;;;18.57;51.90;99451.69;2062767;28;20072;-67
2021/05/05 01:55:13;;;;;;;3.17;2.13;;;;;;;18.56;51.78;99450.81;2054605;28;20027;-67
2021/05/05 01:56:13;;;;;;;2.43;1.97;;;;;;;18.56;51.87;99439.91;2053966;28;20093;-67
2021/05/05 01:57:23;;;;;;;2.77;2.03;;;;;;;18.55;51.95;99437.38;2062929;28;20054;-67
2021/05/05 01:58:23;;;;;;;2.17;1.92;;;;;;;18.55;51.96;99438.22;2063392;28;20031;-67
2021/05/05 01:59:24;;;;;;;4.17;2.67;;;;;;;18.55;51.91;99451.00;2057408;28;20115;-67
2021/05/05 02:00:27;;;;;;;3.03;2.10;;;;;;;18.56;51.88;99447.25;2062620;28;20061;-66
2021/05/05 02:01:27;;;;;;;2.85;2.38;;;;;;;18.55;51.84;99449.13;2062488;28;20066;-66
2021/05/05 02:02:29;;;;;;;3.20;2.00;;;;;;;18.56;51.93;99455.44;2058425;28;20026;-67
2021/05/05 02:03:30;;;;;;;3.53;2.20;;;;;;;18.56;51.88;99450.81;2061506;28;20393;-67
2021/05/05 02:04:31;;;;;;;2.40;2.00;;;;;;;18.56;51.75;99449.97;2062527;28;20097;-67
2021/05/05 02:05:32;;;;;;;2.70;2.37;;;;;;;18.56;51.89;99444.53;2062341;28;20054;-66
2021/05/05 02:06:33;;;;;;;2.73;1.83;;;;;;;18.55;51.81;99451.00;2063350;28;20798;-66
2021/05/05 02:07:33;;;;;;;2.87;1.97;;;;;;;18.55;51.84;99448.28;2062571;28;20026;-67
2021/05/05 02:08:33;;;;;;;2.33;2.10;;;;;;;18.56;51.78;99447.25;2063002;28;20352;-66
2021/05/05 02:09:34;;;;;;;2.43;2.07;;;;;;;18.55;51.81;99448.28;2061253;28;20026;-67
2021/05/05 02:10:35;;;;;;;2.73;2.00;;;;;;;18.56;51.79;99444.53;2061016;28;20048;-67
2021/05/05 02:11:35;;;;;;;2.80;2.33;;;;;;;18.57;51.74;99448.94;2063320;28;20034;-67
2021/05/05 02:12:36;;;;;;;2.97;2.10;;;;;;;18.57;51.86;99446.22;2058031;28;20030;-67
2021/05/05 02:13:37;;;;;;;3.05;2.40;;;;;;;18.57;51.77;99446.22;2055215;28;20033;-66
2021/05/05 02:14:37;;;;;;;2.37;1.80;;;;;;;18.56;51.82;99448.09;2061908;28;20572;-67
2021/05/05 02:15:38;;;;;;;3.47;2.07;;;;;;;18.57;51.77;99446.22;2062570;28;20026;-67
2021/05/05 02:16:38;;;;;;;2.73;1.77;;;;;;;18.56;51.87;99445.38;2063097;28;20025;-66
2021/05/05 02:17:39;;;;;;;2.60;1.60;;;;;;;18.55;51.76;99451.00;2061809;28;20481;-67
2021/05/05 02:18:40;;;;;;;3.58;1.98;;;;;;;18.56;51.91;99452.72;2063260;28;20034;-67
2021/05/05 02:19:41;;;;;;;3.37;2.17;;;;;;;18.56;51.78;99444.53;2061707;28;20684;-66
2021/05/05 02:20:42;;;;;;;3.73;2.30;;;;;;;18.55;51.86;99448.28;2062428;28;20052;-67
2021/05/05 02:21:42;;;;;;;2.63;2.13;;;;;;;18.55;51.84;99453.75;2062785;28;20257;-67
2021/05/05 02:22:44;;;;;;;3.50;2.07;;;;;;;18.56;51.77;99444.53;2057426;28;20090;-67
2021/05/05 02:23:44;;;;;;;3.58;2.35;;;;;;;18.57;51.74;99446.22;2057495;28;20035;-66
2021/05/05 02:24:45;;;;;;;3.60;1.60;;;;;;;18.55;51.77;99446.41;2060991;28;20040;-67
2021/05/05 02:25:46;;;;;;;4.07;2.23;;;;;;;18.55;51.85;99440.09;2055291;28;20042;-67
2021/05/05 02:26:46;;;;;;;3.63;1.87;;;;;;;18.56;51.79;99433.59;2062790;28;20058;-67
2021/05/05 02:27:49;;;;;;;2.67;2.17;;;;;;;18.56;51.86;99450.81;2062223;28;20036;-66
2021/05/05 02:28:49;;;;;;;3.05;2.10;;;;;;;18.56;51.96;99439.06;2062539;28;20038;-66
2021/05/05 02:29:49;;;;;;;3.27;2.23;;;;;;;18.55;51.84;99442.81;2062503;28;20502;-66
2021/05/05 02:30:50;;;;;;;2.87;2.10;;;;;;;18.55;51.81;99431.91;2062622;28;20034;-67
2021/05/05 02:31:51;;;;;;;2.33;1.70;;;;;;;18.55;51.89;99440.09;2059107;28;20026;-67
2021/05/05 02:32:52;;;;;;;2.57;2.20;;;;;;;18.54;51.95;99441.09;2060601;28;20033;-67
2021/05/05 02:33:52;;;;;;;3.03;2.17;;;;;;;18.55;51.95;99437.38;2062111;28;20708;-67
2021/05/05 02:34:56;;;;;;;2.30;2.10;;;;;;;18.54;51.81;99436.47;2061638;28;20176;-67
2021/05/05 02:35:57;;;;;;;3.13;1.63;;;;;;;18.54;51.95;99441.94;2056725;28;20122;-67
2021/05/05 02:36:57;;;;;;;2.43;1.73;;;;;;;18.53;51.88;99428.47;2061874;28;20041;-67
2021/05/05 02:37:58;;;;;;;3.00;2.17;;;;;;;18.53;51.91;99433.94;2062107;28;20026;-67
2021/05/05 02:39:01;;;;;;;2.57;1.87;;;;;;;18.53;51.82;99434.78;2057915;28;20027;-67
2021/05/05 02:40:04;;;;;;;1.83;1.65;;;;;;;18.52;51.80;99438.53;2061306;28;20030;-67
2021/05/05 02:41:05;;;;;;;1.75;1.65;;;;;;;18.54;51.98;99441.09;2060041;28;20057;-67
2021/05/05 02:42:07;;;;;;;2.97;2.13;;;;;;;18.53;51.85;99434.78;2061906;28;20061;-67
2021/05/05 02:43:08;;;;;;;3.50;2.10;;;;;;;18.53;51.87;99439.41;2062384;28;20045;-66
2021/05/05 02:44:09;;;;;;;2.30;1.90;;;;;;;18.54;51.80;99438.38;2062787;28;20137;-67
2021/05/05 02:45:10;;;;;;;2.80;1.90;;;;;;;18.55;51.75;99437.38;2062412;28;20069;-67
2021/05/05 02:46:11;;;;;;;3.50;2.35;;;;;;;18.55;51.85;99437.38;2062501;28;20038;-67
2021/05/05 02:47:12;;;;;;;3.07;2.30;;;;;;;18.54;51.71;99432.91;2061907;28;20114;-67
2021/05/05 02:48:13;;;;;;;3.88;2.05;;;;;;;18.53;51.78;99432.06;2062483;28;20073;-67
2021/05/05 02:49:13;;;;;;;2.10;1.90;;;;;;;18.53;51.85;99434.78;2059536;28;20023;-67
2021/05/05 02:50:14;;;;;;;3.43;2.00;;;;;;;18.55;51.64;99438.22;2061005;28;20022;-67
2021/05/05 02:51:14;;;;;;;2.70;2.00;;;;;;;18.55;51.79;99437.38;2060262;28;20030;-67
2021/05/05 02:52:15;;;;;;;2.77;2.10;;;;;;;18.54;51.89;99438.38;2062229;28;20105;-67
2021/05/05 02:53:15;;;;;;;2.60;1.80;;;;;;;18.53;51.88;99439.41;2059701;28;20026;-67
2021/05/05 02:54:16;;;;;;;2.23;1.53;;;;;;;18.54;51.80;99443.81;2062762;28;20030;-67
2021/05/05 02:55:16;;;;;;;3.23;2.10;;;;;;;18.53;51.73;99445.69;2061709;28;20096;-67
2021/05/05 02:56:17;;;;;;;1.97;1.70;;;;;;;18.55;51.78;99445.56;2062921;28;20109;-67
2021/05/05 02:57:17;;;;;;;2.30;2.00;;;;;;;18.54;51.85;99441.94;2061866;28;20666;-67
2021/05/05 02:58:18;;;;;;;2.40;2.20;;;;;;;18.53;51.81;99448.44;2061536;28;20501;-67
2021/05/05 02:59:18;;;;;;;2.07;1.87;;;;;;;18.54;51.94;99441.09;2058545;28;20037;-67
2021/05/05 03:00:19;;;;;;;2.13;1.80;;;;;;;18.53;51.75;99445.69;2058441;28;20028;-67
2021/05/05 03:01:20;;;;;;;2.13;1.83;;;;;;;18.54;51.72;99443.81;2061526;28;20112;-67
2021/05/05 03:02:21;;;;;;;2.20;1.70;;;;;;;18.54;51.72;99441.09;2058392;28;20034;-67
2021/05/05 03:03:21;;;;;;;2.53;2.27;;;;;;;18.53;51.75;99439.41;2062409;28;20109;-67
2021/05/05 03:04:23;;;;;;;2.00;1.60;;;;;;;18.54;51.90;99438.38;2062119;28;20018;-67
2021/05/05 03:05:24;;;;;;;2.80;1.80;;;;;;;18.53;51.77;99437.50;2062596;28;20509;-67
2021/05/05 03:06:24;;;;;;;2.17;1.63;;;;;;;18.53;51.93;99436.66;2062175;28;20468;-67
2021/05/05 03:07:25;;;;;;;2.73;2.10;;;;;;;18.54;51.92;99435.63;2062137;28;20022;-67
2021/05/05 03:08:26;;;;;;;2.40;1.83;;;;;;;18.54;51.86;99432.91;2062840;28;20035;-67
2021/05/05 03:09:27;;;;;;;2.70;2.07;;;;;;;18.52;51.86;99433.09;2061664;28;20032;-67
2021/05/05 03:10:27;;;;;;;4.20;1.67;;;;;;;18.52;51.89;99432.22;2062575;28;20018;-67
2021/05/05 03:11:28;;;;;;;3.07;2.23;;;;;;;18.55;51.94;99434.63;2061669;28;20724;-67
2021/05/05 03:12:28;;;;;;;1.73;1.60;;;;;;;18.54;51.93;99435.63;2061356;28;20121;-67
2021/05/05 03:13:29;;;;;;;2.37;1.70;;;;;;;18.52;52.04;99437.66;2062195;28;20022;-67
2021/05/05 03:14:30;;;;;;;2.67;1.67;;;;;;;18.52;51.87;99432.22;2062043;28;20022;-67
2021/05/05 03:15:30;;;;;;;2.57;1.87;;;;;;;18.53;51.88;99431.22;2062285;28;20026;-67
2021/05/05 03:16:31;;;;;;;2.30;1.87;;;;;;;18.53;51.77;99431.22;2062197;28;20472;-67
2021/05/05 03:17:32;;;;;;;4.20;2.20;;;;;;;18.52;52.11;99427.63;2059424;28;20018;-67
2021/05/05 03:18:32;;;;;;;2.33;1.70;;;;;;;18.52;52.03;99430.34;2061413;28;20030;-67
2021/05/05 03:19:33;;;;;;;2.47;1.70;;;;;;;18.51;51.83;99425.91;2061973;28;20042;-67
2021/05/05 03:20:33;;;;;;;3.37;2.30;;;;;;;18.52;52.00;99426.75;2062639;28;20026;-67
2021/05/05 03:21:38;;;;;;;2.80;1.60;;;;;;;18.52;52.08;99429.47;2060331;28;20080;-67
2021/05/05 03:22:38;;;;;;;2.03;1.83;;;;;;;18.52;51.87;99432.22;2061835;28;20026;-67
2021/05/05 03:23:39;;;;;;;1.60;1.50;;;;;;;18.52;51.97;99429.47;2058853;28;20077;-67
2021/05/05 03:24:39;;;;;;;2.10;1.90;;;;;;;18.51;51.99;99425.91;2062370;28;20023;-67
2021/05/05 03:25:40;;;;;;;3.27;1.97;;;;;;;18.52;51.97;99426.75;2061227;28;20548;-67
2021/05/05 03:26:41;;;;;;;2.70;2.20;;;;;;;18.51;52.05;99425.06;2061925;28;20494;-67
2021/05/05 03:27:41;;;;;;;1.90;1.50;;;;;;;18.52;51.84;99426.75;2060722;28;20443;-67
2021/05/05 03:28:42;;;;;;;2.43;1.63;;;;;;;18.52;52.02;99426.75;2062324;28;20030;-68
2021/05/05 03:29:42;;;;;;;2.17;1.70;;;;;;;18.51;51.98;99425.06;2062099;28;20041;-67
2021/05/05 03:30:43;;;;;;;2.17;1.77;;;;;;;18.51;52.00;99431.34;2062410;28;20066;-67
2021/05/05 03:31:44;;;;;;;2.37;1.57;;;;;;;18.51;52.12;99428.63;2062033;28;20030;-67
2021/05/05 03:32:44;;;;;;;1.93;1.60;;;;;;;18.52;51.98;99429.47;2062522;28;20034;-67
2021/05/05 03:33:44;;;;;;;2.70;1.80;;;;;;;18.51;52.07;99425.06;2062023;28;20034;-67
2021/05/05 03:34:45;;;;;;;2.30;1.77;;;;;;;18.52;51.96;99432.22;2062408;28;20125;-67
2021/05/05 03:35:45;;;;;;;2.03;1.73;;;;;;;18.51;52.03;99425.06;2057730;28;20034;-67
2021/05/05 03:36:46;;;;;;;2.70;1.93;;;;;;;18.51;52.13;99425.06;2060541;28;20034;-67
2021/05/05 03:37:46;;;;;;;2.20;1.97;;;;;;;18.51;52.03;99430.50;2060982;28;20432;-67
2021/05/05 03:38:47;;;;;;;2.47;1.63;;;;;;;18.50;52.23;99423.34;2061473;28;20061;-67
2021/05/05 03:39:47;;;;;;;2.13;1.60;;;;;;;18.50;52.18;99420.63;2060418;28;20037;-68
2021/05/05 03:40:48;;;;;;;2.63;1.90;;;;;;;18.50;52.07;99428.81;2062299;28;20053;-67
2021/05/05 03:41:48;;;;;;;2.13;1.73;;;;;;;18.50;52.12;99428.81;2061050;28;20033;-67
2021/05/05 03:42:49;;;;;;;2.30;1.80;;;;;;;18.49;52.33;99422.47;2061578;28;20030;-67
2021/05/05 03:43:50;;;;;;;1.87;1.63;;;;;;;18.50;52.30;99417.91;2061568;28;20291;-67
2021/05/05 03:44:50;;;;;;;4.03;2.13;;;;;;;18.49;52.16;99425.19;2061670;28;20509;-67
2021/05/05 03:45:50;;;;;;;2.63;1.57;;;;;;;18.49;52.19;99427.94;2061709;28;20080;-67
2021/05/05 03:46:51;;;;;;;3.43;1.83;;;;;;;18.49;52.07;99427.94;2061387;28;20026;-67
2021/05/05 03:47:52;;;;;;;3.50;2.30;;;;;;;18.49;52.18;99427.94;2062474;28;20029;-67
2021/05/05 03:48:53;;;;;;;3.93;1.93;;;;;;;18.48;52.09;99425.38;2059669;28;20022;-67
2021/05/05 03:49:53;;;;;;;3.83;1.85;;;;;;;18.49;52.16;99422.47;2061209;28;20768;-67
2021/05/05 03:50:56;;;;;;;2.53;1.90;;;;;;;18.49;52.11;99425.19;2060891;28;20041;-67
2021/05/05 03:51:56;;;;;;;2.38;1.90;;;;;;;18.49;52.11;99424.34;2061739;28;20058;-67
2021/05/05 03:52:56;;;;;;;2.73;1.80;;;;;;;18.49;52.16;99425.19;2061707;28;20053;-67
2021/05/05 03:53:57;;;;;;;3.40;2.23;;;;;;;18.49;52.15;99432.53;2057392;28;20022;-67
2021/05/05 03:54:57;;;;;;;2.50;1.80;;;;;;;18.50;52.22;99426.09;2061474;28;20034;-67
2021/05/05 03:55:58;;;;;;;2.43;2.23;;;;;;;18.49;52.13;99422.47;2055052;28;20038;-66
2021/05/05 03:56:58;;;;;;;2.60;1.80;;;;;;;18.48;52.13;99426.22;2055044;28;20101;-67
2021/05/05 03:57:59;;;;;;;2.57;1.87;;;;;;;18.47;52.20;99424.53;2061545;28;20034;-67
2021/05/05 03:58:59;;;;;;;1.77;1.43;;;;;;;18.49;52.17;99427.94;2061761;28;20034;-67
2021/05/05 04:00:00;;;;;;;2.30;1.90;;;;;;;18.48;52.10;99425.38;2059571;28;20027;-67
2021/05/05 04:01:01;;;;;;;2.03;1.43;;;;;;;18.49;52.21;99425.19;2061954;28;20516;-67
2021/05/05 04:02:01;;;;;;;5.57;1.63;;;;;;;18.49;52.19;99424.34;2061372;28;20119;-67
2021/05/05 04:03:02;;;;;;;2.43;2.07;;;;;;;18.49;52.06;99424.34;2061979;28;20034;-67
2021/05/05 04:04:03;;;;;;;2.30;1.80;;;;;;;18.49;52.11;99427.09;2058875;28;20074;-67
2021/05/05 04:05:05;;;;;;;2.75;1.80;;;;;;;18.49;52.19;99427.94;2061325;28;20049;-67
2021/05/05 04:06:06;;;;;;;2.08;1.60;;;;;;;18.48;52.18;99422.66;2060652;28;20037;-67
2021/05/05 04:07:06;;;;;;;2.40;1.60;;;;;;;18.48;52.04;99420.78;2061270;28;20022;-67
2021/05/05 04:08:07;;;;;;;2.33;1.80;;;;;;;18.48;52.22;99426.22;2062072;28;20173;-67
2021/05/05 04:09:08;;;;;;;2.17;1.60;;;;;;;18.48;52.20;99419.94;2060941;28;20061;-67
2021/05/05 04:10:10;;;;;;;1.73;1.33;;;;;;;18.47;52.23;99419.06;2060533;28;20559;-67
2021/05/05 04:11:10;;;;;;;3.15;2.00;;;;;;;18.48;52.22;99428.97;2061941;28;20030;-67
2021/05/05 04:12:11;;;;;;;3.67;1.80;;;;;;;18.48;52.35;99425.38;2061380;28;20117;-67
2021/05/05 04:13:12;;;;;;;1.92;1.63;;;;;;;18.49;52.13;99421.63;2054274;28;20034;-67
2021/05/05 04:14:12;;;;;;;2.43;2.00;;;;;;;18.48;52.20;99426.22;2056955;28;20031;-67
2021/05/05 04:15:14;;;;;;;3.33;1.80;;;;;;;18.48;52.26;99414.47;2056355;28;20153;-67
2021/05/05 04:16:14;;;;;;;2.25;1.67;;;;;;;18.48;52.16;99422.66;2060592;28;20116;-67
2021/05/05 04:17:14;;;;;;;3.27;1.80;;;;;;;18.48;52.26;99417.19;2061882;28;20026;-67
2021/05/05 04:18:15;;;;;;;1.97;1.77;;;;;;;18.48;52.32;99422.66;2054068;28;20101;-67
2021/05/05 04:19:15;;;;;;;2.53;1.70;;;;;;;18.49;52.11;99429.81;2059251;28;20034;-67
2021/05/05 04:20:19;;;;;;;2.03;1.63;;;;;;;18.48;52.28;99428.97;2062141;28;20595;-67
2021/05/05 04:21:21;;;;;;;1.92;1.50;;;;;;;18.48;52.18;99426.22;2060236;28;20509;-67
2021/05/05 04:22:22;;;;;;;3.35;1.75;;;;;;;18.48;52.26;99425.38;2061829;28;20034;-67
2021/05/05 04:23:22;;;;;;;3.55;1.48;;;;;;;18.47;52.17;99424.53;2061880;28;20033;-67
2021/05/05 04:24:23;;;;;;;3.33;1.57;;;;;;;18.48;52.14;99426.22;2058114;28;20027;-67
2021/05/05 04:25:23;;;;;;;2.60;1.77;;;;;;;18.47;52.16;99434.56;2059684;28;20466;-67
2021/05/05 04:26:24;;;;;;;1.70;1.40;;;;;;;18.48;52.18;99426.22;2061836;28;20038;-67
2021/05/05 04:27:25;;;;;;;3.23;2.20;;;;;;;18.49;52.31;99435.28;2063735;28;20105;-67
2021/05/05 04:28:26;;;;;;;2.80;1.58;;;;;;;18.48;52.25;99425.38;2063326;28;20030;-67
2021/05/05 04:29:27;;;;;;;2.70;1.73;;;;;;;18.48;52.11;99436.28;2062976;28;20118;-67
2021/05/05 04:30:27;;;;;;;1.70;1.50;;;;;;;18.48;52.14;99441.75;2062816;28;20041;-67
2021/05/05 04:31:29;;;;;;;2.70;1.77;;;;;;;18.48;52.10;99436.28;2062754;28;20133;-67
2021/05/05 04:32:30;;;;;;;2.15;1.67;;;;;;;18.49;52.15;99438.00;2063931;28;20036;-67
2021/05/05 04:33:30;;;;;;;1.50;1.40;;;;;;;18.47;52.18;99445.50;2056511;28;20490;-67
2021/05/05 04:34:31;;;;;;;2.03;1.77;;;;;;;18.48;52.18;99439.03;2059996;28;20120;-67
2021/05/05 04:35:31;;;;;;;1.87;1.47;;;;;;;18.48;52.24;99441.75;2059179;28;20113;-66
2021/05/05 04:36:32;;;;;;;3.37;1.37;;;;;;;18.48;52.27;99444.50;2060174;28;20756;-67
2021/05/05 04:37:32;;;;;;;1.73;1.40;;;;;;;18.47;52.16;99440.03;2063792;28;20054;-67
2021/05/05 04:38:33;;;;;;;1.57;1.23;;;;;;;18.47;52.25;99450.94;2063362;28;20030;-66
2021/05/05 04:39:34;;;;;;;2.80;1.57;;;;;;;18.48;52.22;99441.75;2063587;28;20084;-67
2021/05/05 04:40:34;;;;;;;1.63;1.52;;;;;;;18.47;52.24;99451.81;2063772;28;20517;-66
2021/05/05 04:41:35;;;;;;;2.37;1.77;;;;;;;18.47;52.20;99450.94;2063180;28;20034;-67
2021/05/05 04:42:36;;;;;;;2.17;1.77;;;;;;;18.47;52.20;99453.66;2063828;28;20041;-67
2021/05/05 04:43:37;;;;;;;1.92;1.55;;;;;;;18.47;52.42;99450.94;2063434;28;20619;-67
2021/05/05 04:44:37;;;;;;;1.77;1.50;;;;;;;18.47;52.29;99454.56;2063309;28;20030;-67
2021/05/05 04:45:38;;;;;;;2.37;1.83;;;;;;;18.46;52.19;99449.25;2063301;28;20022;-66
2021/05/05 04:46:38;;;;;;;2.53;1.70;;;;;;;18.47;52.35;99456.41;2061639;28;20038;-67